sensor_id;sensor_type;location;lat;lon;timestamp;P1;durP1;ratioP1;P2;durP2;ratioP2
39102;SDS011;24847;48.218;16.414;2023-06-22T00:01:15;10.02;;;4.50;;
39102;SDS011;24847;48.218;16.414;2023-06-22T00:06:20;10.15;;;4.43;;
39102;SDS011;24847;48.218;16.414;2023-06-22T00:11:22;12.60;;;4.53;;
39102;SDS011;24847;48.218;16.414;2023-06-22T00:16:26;8.02;;;4.40;;
39102;SDS011;24847;48.218;16.414;2023-06-22T00:21:28;7.45;;;3.72;;
39102;SDS011;24847;48.218;16.414;2023-06-22T00:26:31;8.07;;;4.10;;
39102;SDS011;24847;48.218;16.414;2023-06-22T00:31:34;9.50;;;4.40;;
39102;SDS011;24847;48.218;16.414;2023-06-22T00:36:37;8.73;;;4.32;;
39102;SDS011;24847;48.218;16.414;2023-06-22T00:41:41;8.10;;;3.70;;
39102;SDS011;24847;48.218;16.414;2023-06-22T00:46:44;7.05;;;4.15;;
39102;SDS011;24847;48.218;16.414;2023-06-22T00:51:46;8.60;;;3.53;;
39102;SDS011;24847;48.218;16.414;2023-06-22T00:56:49;8.93;;;4.15;;
39102;SDS011;24847;48.218;16.414;2023-06-22T01:01:53;12.75;;;4.47;;
39102;SDS011;24847;48.218;16.414;2023-06-22T01:06:58;7.13;;;4.07;;
39102;SDS011;24847;48.218;16.414;2023-06-22T01:12:13;9.45;;;4.68;;
39102;SDS011;24847;48.218;16.414;2023-06-22T01:17:19;7.15;;;4.05;;
39102;SDS011;24847;48.218;16.414;2023-06-22T01:22:23;9.40;;;4.30;;
39102;SDS011;24847;48.218;16.414;2023-06-22T01:27:32;8.57;;;4.47;;
39102;SDS011;24847;48.218;16.414;2023-06-22T01:32:43;8.27;;;4.25;;
39102;SDS011;24847;48.218;16.414;2023-06-22T01:37:46;5.55;;;3.63;;
39102;SDS011;24847;48.218;16.414;2023-06-22T01:42:50;10.88;;;4.13;;
39102;SDS011;24847;48.218;16.414;2023-06-22T01:47:54;9.23;;;3.67;;
39102;SDS011;24847;48.218;16.414;2023-06-22T01:52:57;4.85;;;3.40;;
39102;SDS011;24847;48.218;16.414;2023-06-22T01:58:00;6.72;;;4.03;;
39102;SDS011;24847;48.218;16.414;2023-06-22T02:03:05;8.45;;;4.60;;
39102;SDS011;24847;48.218;16.414;2023-06-22T02:08:13;6.53;;;4.45;;
39102;SDS011;24847;48.218;16.414;2023-06-22T02:13:21;7.00;;;4.07;;
39102;SDS011;24847;48.218;16.414;2023-06-22T02:18:27;11.27;;;4.35;;
39102;SDS011;24847;48.218;16.414;2023-06-22T02:23:29;7.30;;;3.85;;
39102;SDS011;24847;48.218;16.414;2023-06-22T02:28:33;7.78;;;4.00;;
39102;SDS011;24847;48.218;16.414;2023-06-22T02:33:36;6.53;;;3.60;;
39102;SDS011;24847;48.218;16.414;2023-06-22T02:38:40;4.25;;;3.17;;
39102;SDS011;24847;48.218;16.414;2023-06-22T02:43:46;5.00;;;2.80;;
39102;SDS011;24847;48.218;16.414;2023-06-22T02:48:49;6.45;;;3.25;;
39102;SDS011;24847;48.218;16.414;2023-06-22T02:53:52;3.95;;;2.58;;
39102;SDS011;24847;48.218;16.414;2023-06-22T02:58:57;5.75;;;2.92;;
39102;SDS011;24847;48.218;16.414;2023-06-22T03:04:02;7.90;;;3.63;;
39102;SDS011;24847;48.218;16.414;2023-06-22T03:09:05;5.05;;;3.28;;
39102;SDS011;24847;48.218;16.414;2023-06-22T03:14:07;4.13;;;2.80;;
39102;SDS011;24847;48.218;16.414;2023-06-22T03:19:11;6.80;;;3.58;;
39102;SDS011;24847;48.218;16.414;2023-06-22T03:24:14;5.13;;;3.33;;
39102;SDS011;24847;48.218;16.414;2023-06-22T03:29:16;5.35;;;3.70;;
39102;SDS011;24847;48.218;16.414;2023-06-22T03:34:19;8.32;;;4.88;;
39102;SDS011;24847;48.218;16.414;2023-06-22T03:39:22;7.78;;;4.00;;
39102;SDS011;24847;48.218;16.414;2023-06-22T03:44:24;6.82;;;3.83;;
39102;SDS011;24847;48.218;16.414;2023-06-22T03:49:28;5.78;;;3.60;;
39102;SDS011;24847;48.218;16.414;2023-06-22T03:54:30;9.68;;;3.50;;
39102;SDS011;24847;48.218;16.414;2023-06-22T03:59:33;5.22;;;3.00;;
39102;SDS011;24847;48.218;16.414;2023-06-22T04:04:36;5.63;;;2.78;;
39102;SDS011;24847;48.218;16.414;2023-06-22T04:09:39;6.93;;;3.08;;
39102;SDS011;24847;48.218;16.414;2023-06-22T04:14:41;4.20;;;2.60;;
39102;SDS011;24847;48.218;16.414;2023-06-22T04:19:45;5.57;;;2.88;;
39102;SDS011;24847;48.218;16.414;2023-06-22T04:24:47;4.00;;;2.60;;
39102;SDS011;24847;48.218;16.414;2023-06-22T04:29:53;4.72;;;2.67;;
39102;SDS011;24847;48.218;16.414;2023-06-22T04:34:57;4.82;;;3.13;;
39102;SDS011;24847;48.218;16.414;2023-06-22T04:40:00;3.95;;;2.35;;
39102;SDS011;24847;48.218;16.414;2023-06-22T04:45:04;5.78;;;2.63;;
39102;SDS011;24847;48.218;16.414;2023-06-22T04:50:09;4.38;;;2.45;;
39102;SDS011;24847;48.218;16.414;2023-06-22T04:55:11;5.90;;;3.17;;
39102;SDS011;24847;48.218;16.414;2023-06-22T05:00:19;7.57;;;3.95;;
39102;SDS011;24847;48.218;16.414;2023-06-22T05:05:24;3.92;;;3.08;;
39102;SDS011;24847;48.218;16.414;2023-06-22T05:10:28;9.55;;;4.57;;
39102;SDS011;24847;48.218;16.414;2023-06-22T05:15:30;6.57;;;3.25;;
39102;SDS011;24847;48.218;16.414;2023-06-22T05:20:38;9.13;;;3.78;;
39102;SDS011;24847;48.218;16.414;2023-06-22T05:25:40;9.90;;;4.40;;
39102;SDS011;24847;48.218;16.414;2023-06-22T05:30:43;6.53;;;3.95;;
39102;SDS011;24847;48.218;16.414;2023-06-22T05:35:46;8.15;;;4.07;;
39102;SDS011;24847;48.218;16.414;2023-06-22T05:40:48;7.75;;;4.47;;
39102;SDS011;24847;48.218;16.414;2023-06-22T05:45:51;6.97;;;3.72;;
39102;SDS011;24847;48.218;16.414;2023-06-22T05:50:54;7.03;;;3.53;;
39102;SDS011;24847;48.218;16.414;2023-06-22T05:55:57;6.75;;;4.30;;
39102;SDS011;24847;48.218;16.414;2023-06-22T06:00:59;9.73;;;4.43;;
39102;SDS011;24847;48.218;16.414;2023-06-22T06:06:03;7.03;;;4.57;;
39102;SDS011;24847;48.218;16.414;2023-06-22T06:11:06;7.13;;;4.72;;
39102;SDS011;24847;48.218;16.414;2023-06-22T06:16:08;7.65;;;5.25;;
39102;SDS011;24847;48.218;16.414;2023-06-22T06:21:12;10.23;;;6.43;;
39102;SDS011;24847;48.218;16.414;2023-06-22T06:26:14;10.30;;;5.53;;
39102;SDS011;24847;48.218;16.414;2023-06-22T06:31:17;9.50;;;5.53;;
39102;SDS011;24847;48.218;16.414;2023-06-22T06:36:21;7.40;;;4.47;;
39102;SDS011;24847;48.218;16.414;2023-06-22T06:41:23;7.43;;;5.45;;
39102;SDS011;24847;48.218;16.414;2023-06-22T06:46:26;7.38;;;5.50;;
39102;SDS011;24847;48.218;16.414;2023-06-22T06:51:29;10.10;;;7.32;;
39102;SDS011;24847;48.218;16.414;2023-06-22T06:56:32;12.50;;;7.10;;
39102;SDS011;24847;48.218;16.414;2023-06-22T07:01:34;8.65;;;6.85;;
39102;SDS011;24847;48.218;16.414;2023-06-22T07:06:38;14.85;;;7.53;;
39102;SDS011;24847;48.218;16.414;2023-06-22T07:11:40;7.93;;;6.18;;
39102;SDS011;24847;48.218;16.414;2023-06-22T07:16:42;8.25;;;6.15;;
39102;SDS011;24847;48.218;16.414;2023-06-22T07:21:46;10.10;;;6.47;;
39102;SDS011;24847;48.218;16.414;2023-06-22T07:26:48;8.02;;;6.18;;
39102;SDS011;24847;48.218;16.414;2023-06-22T07:31:51;7.60;;;6.28;;
39102;SDS011;24847;48.218;16.414;2023-06-22T07:36:58;12.63;;;5.97;;
39102;SDS011;24847;48.218;16.414;2023-06-22T07:42:00;8.43;;;5.38;;
39102;SDS011;24847;48.218;16.414;2023-06-22T07:47:02;9.40;;;6.30;;
39102;SDS011;24847;48.218;16.414;2023-06-22T07:52:07;9.43;;;5.68;;
39102;SDS011;24847;48.218;16.414;2023-06-22T07:57:09;7.70;;;5.75;;
39102;SDS011;24847;48.218;16.414;2023-06-22T08:02:12;11.75;;;6.20;;
39102;SDS011;24847;48.218;16.414;2023-06-22T08:07:15;7.65;;;5.63;;
39102;SDS011;24847;48.218;16.414;2023-06-22T08:12:20;6.72;;;5.05;;
39102;SDS011;24847;48.218;16.414;2023-06-22T08:17:22;10.80;;;6.75;;
39102;SDS011;24847;48.218;16.414;2023-06-22T08:22:26;9.93;;;6.10;;
39102;SDS011;24847;48.218;16.414;2023-06-22T08:27:29;8.38;;;5.95;;
39102;SDS011;24847;48.218;16.414;2023-06-22T08:32:32;6.30;;;5.30;;
39102;SDS011;24847;48.218;16.414;2023-06-22T08:37:36;10.48;;;6.22;;
39102;SDS011;24847;48.218;16.414;2023-06-22T08:42:39;9.57;;;5.72;;
39102;SDS011;24847;48.218;16.414;2023-06-22T08:47:42;8.50;;;5.95;;
39102;SDS011;24847;48.218;16.414;2023-06-22T08:52:46;7.00;;;5.30;;
39102;SDS011;24847;48.218;16.414;2023-06-22T08:57:49;7.10;;;4.90;;
39102;SDS011;24847;48.218;16.414;2023-06-22T09:02:51;8.23;;;5.25;;
39102;SDS011;24847;48.218;16.414;2023-06-22T09:07:58;5.10;;;4.53;;
39102;SDS011;24847;48.218;16.414;2023-06-22T09:13:00;8.70;;;5.18;;
39102;SDS011;24847;48.218;16.414;2023-06-22T09:18:03;6.35;;;4.43;;
39102;SDS011;24847;48.218;16.414;2023-06-22T09:23:07;7.60;;;5.13;;
39102;SDS011;24847;48.218;16.414;2023-06-22T09:28:09;6.70;;;5.25;;
39102;SDS011;24847;48.218;16.414;2023-06-22T09:33:12;7.57;;;4.75;;
39102;SDS011;24847;48.218;16.414;2023-06-22T09:38:15;8.25;;;5.03;;
39102;SDS011;24847;48.218;16.414;2023-06-22T09:43:18;6.05;;;4.35;;
39102;SDS011;24847;48.218;16.414;2023-06-22T09:48:20;5.90;;;5.00;;
39102;SDS011;24847;48.218;16.414;2023-06-22T09:53:23;5.45;;;4.53;;
39102;SDS011;24847;48.218;16.414;2023-06-22T09:58:25;5.45;;;4.65;;
39102;SDS011;24847;48.218;16.414;2023-06-22T10:03:28;6.88;;;4.50;;
39102;SDS011;24847;48.218;16.414;2023-06-22T10:08:31;4.97;;;4.38;;
39102;SDS011;24847;48.218;16.414;2023-06-22T10:13:33;6.90;;;4.45;;
39102;SDS011;24847;48.218;16.414;2023-06-22T10:18:35;5.95;;;4.20;;
39102;SDS011;24847;48.218;16.414;2023-06-22T10:23:39;5.45;;;3.58;;
39102;SDS011;24847;48.218;16.414;2023-06-22T10:28:41;4.13;;;3.47;;
39102;SDS011;24847;48.218;16.414;2023-06-22T10:33:43;4.95;;;3.15;;
39102;SDS011;24847;48.218;16.414;2023-06-22T10:38:47;6.45;;;3.00;;
39102;SDS011;24847;48.218;16.414;2023-06-22T10:43:50;4.95;;;2.70;;
39102;SDS011;24847;48.218;16.414;2023-06-22T10:48:52;4.72;;;2.55;;
39102;SDS011;24847;48.218;16.414;2023-06-22T10:53:58;4.57;;;2.47;;
39102;SDS011;24847;48.218;16.414;2023-06-22T10:59:00;5.75;;;2.90;;
39102;SDS011;24847;48.218;16.414;2023-06-22T11:04:03;6.30;;;2.95;;
39102;SDS011;24847;48.218;16.414;2023-06-22T11:09:07;5.15;;;3.35;;
39102;SDS011;24847;48.218;16.414;2023-06-22T11:14:09;4.78;;;3.22;;
39102;SDS011;24847;48.218;16.414;2023-06-22T11:19:11;6.15;;;3.35;;
39102;SDS011;24847;48.218;16.414;2023-06-22T11:24:16;5.40;;;4.20;;
39102;SDS011;24847;48.218;16.414;2023-06-22T11:29:18;4.55;;;4.05;;
39102;SDS011;24847;48.218;16.414;2023-06-22T11:34:20;5.40;;;3.58;;
39102;SDS011;24847;48.218;16.414;2023-06-22T11:39:24;6.63;;;3.78;;
39102;SDS011;24847;48.218;16.414;2023-06-22T11:44:26;4.57;;;3.10;;
39102;SDS011;24847;48.218;16.414;2023-06-22T11:49:28;5.05;;;3.38;;
39102;SDS011;24847;48.218;16.414;2023-06-22T11:54:33;5.45;;;3.22;;
39102;SDS011;24847;48.218;16.414;2023-06-22T11:59:35;5.55;;;3.17;;
39102;SDS011;24847;48.218;16.414;2023-06-22T12:04:38;3.80;;;3.38;;
39102;SDS011;24847;48.218;16.414;2023-06-22T12:09:41;4.77;;;3.07;;
39102;SDS011;24847;48.218;16.414;2023-06-22T12:14:44;4.30;;;2.67;;
39102;SDS011;24847;48.218;16.414;2023-06-22T12:19:47;5.90;;;3.13;;
39102;SDS011;24847;48.218;16.414;2023-06-22T12:24:51;5.22;;;2.85;;
39102;SDS011;24847;48.218;16.414;2023-06-22T12:29:53;4.60;;;3.55;;
39102;SDS011;24847;48.218;16.414;2023-06-22T12:34:56;5.07;;;2.80;;
39102;SDS011;24847;48.218;16.414;2023-06-22T12:40:00;5.30;;;2.90;;
39102;SDS011;24847;48.218;16.414;2023-06-22T12:45:04;5.05;;;4.07;;
39102;SDS011;24847;48.218;16.414;2023-06-22T12:50:08;5.82;;;3.08;;
39102;SDS011;24847;48.218;16.414;2023-06-22T12:55:11;5.50;;;2.55;;
39102;SDS011;24847;48.218;16.414;2023-06-22T13:00:14;7.93;;;3.03;;
39102;SDS011;24847;48.218;16.414;2023-06-22T13:05:18;4.07;;;3.15;;
39102;SDS011;24847;48.218;16.414;2023-06-22T13:10:22;3.97;;;3.03;;
39102;SDS011;24847;48.218;16.414;2023-06-22T13:15:24;8.90;;;4.63;;
39102;SDS011;24847;48.218;16.414;2023-06-22T13:20:28;5.60;;;3.95;;
39102;SDS011;24847;48.218;16.414;2023-06-22T13:25:32;5.72;;;3.17;;
39102;SDS011;24847;48.218;16.414;2023-06-22T13:30:34;6.47;;;3.10;;
39102;SDS011;24847;48.218;16.414;2023-06-22T13:35:36;4.70;;;2.67;;
39102;SDS011;24847;48.218;16.414;2023-06-22T13:40:40;8.05;;;2.92;;
39102;SDS011;24847;48.218;16.414;2023-06-22T13:45:42;6.80;;;2.80;;
39102;SDS011;24847;48.218;16.414;2023-06-22T13:50:45;4.30;;;3.33;;
39102;SDS011;24847;48.218;16.414;2023-06-22T13:55:48;5.18;;;3.17;;
39102;SDS011;24847;48.218;16.414;2023-06-22T14:00:51;8.63;;;3.38;;
39102;SDS011;24847;48.218;16.414;2023-06-22T14:05:53;5.25;;;3.25;;
39102;SDS011;24847;48.218;16.414;2023-06-22T14:10:58;5.28;;;3.22;;
39102;SDS011;24847;48.218;16.414;2023-06-22T14:16:00;4.13;;;3.10;;
39102;SDS011;24847;48.218;16.414;2023-06-22T14:21:04;6.70;;;4.25;;
39102;SDS011;24847;48.218;16.414;2023-06-22T14:26:07;7.18;;;4.10;;
39102;SDS011;24847;48.218;16.414;2023-06-22T14:31:09;5.50;;;3.58;;
39102;SDS011;24847;48.218;16.414;2023-06-22T14:36:12;5.75;;;4.03;;
39102;SDS011;24847;48.218;16.414;2023-06-22T14:41:15;7.22;;;4.00;;
39102;SDS011;24847;48.218;16.414;2023-06-22T14:46:18;10.35;;;8.77;;
39102;SDS011;24847;48.218;16.414;2023-06-22T14:51:21;8.70;;;4.65;;
39102;SDS011;24847;48.218;16.414;2023-06-22T14:56:24;5.18;;;3.88;;
39102;SDS011;24847;48.218;16.414;2023-06-22T15:01:26;7.93;;;4.40;;
39102;SDS011;24847;48.218;16.414;2023-06-22T15:06:29;4.53;;;3.80;;
39102;SDS011;24847;48.218;16.414;2023-06-22T15:11:33;7.53;;;4.28;;
39102;SDS011;24847;48.218;16.414;2023-06-22T15:16:35;6.68;;;4.68;;
39102;SDS011;24847;48.218;16.414;2023-06-22T15:21:37;5.43;;;4.03;;
39102;SDS011;24847;48.218;16.414;2023-06-22T15:26:41;6.65;;;4.15;;
39102;SDS011;24847;48.218;16.414;2023-06-22T15:31:43;5.22;;;4.20;;
39102;SDS011;24847;48.218;16.414;2023-06-22T15:36:46;5.80;;;4.80;;
39102;SDS011;24847;48.218;16.414;2023-06-22T15:41:49;6.97;;;4.50;;
39102;SDS011;24847;48.218;16.414;2023-06-22T15:46:54;5.93;;;4.40;;
39102;SDS011;24847;48.218;16.414;2023-06-22T15:51:56;8.38;;;4.78;;
39102;SDS011;24847;48.218;16.414;2023-06-22T15:57:00;7.20;;;5.30;;
39102;SDS011;24847;48.218;16.414;2023-06-22T16:02:02;7.57;;;4.93;;
39102;SDS011;24847;48.218;16.414;2023-06-22T16:07:05;5.68;;;4.32;;
39102;SDS011;24847;48.218;16.414;2023-06-22T16:12:09;6.72;;;5.30;;
39102;SDS011;24847;48.218;16.414;2023-06-22T16:17:11;6.43;;;4.95;;
39102;SDS011;24847;48.218;16.414;2023-06-22T16:22:13;6.65;;;4.80;;
39102;SDS011;24847;48.218;16.414;2023-06-22T16:27:19;7.32;;;4.57;;
39102;SDS011;24847;48.218;16.414;2023-06-22T16:32:21;7.50;;;5.30;;
39102;SDS011;24847;48.218;16.414;2023-06-22T16:37:23;7.57;;;5.32;;
39102;SDS011;24847;48.218;16.414;2023-06-22T16:42:27;6.53;;;5.53;;
39102;SDS011;24847;48.218;16.414;2023-06-22T16:47:29;12.60;;;5.43;;
39102;SDS011;24847;48.218;16.414;2023-06-22T16:52:32;11.40;;;5.65;;
39102;SDS011;24847;48.218;16.414;2023-06-22T16:57:36;6.10;;;5.10;;
39102;SDS011;24847;48.218;16.414;2023-06-22T17:02:39;8.20;;;5.43;;
39102;SDS011;24847;48.218;16.414;2023-06-22T17:07:48;8.68;;;5.68;;
39102;SDS011;24847;48.218;16.414;2023-06-22T17:12:56;7.18;;;5.43;;
39102;SDS011;24847;48.218;16.414;2023-06-22T17:17:58;5.97;;;5.38;;
39102;SDS011;24847;48.218;16.414;2023-06-22T17:23:01;6.97;;;5.78;;
39102;SDS011;24847;48.218;16.414;2023-06-22T17:28:04;8.43;;;6.15;;
39102;SDS011;24847;48.218;16.414;2023-06-22T17:33:07;7.72;;;5.63;;
39102;SDS011;24847;48.218;16.414;2023-06-22T17:38:10;7.57;;;5.18;;
39102;SDS011;24847;48.218;16.414;2023-06-22T17:43:23;7.15;;;5.80;;
39102;SDS011;24847;48.218;16.414;2023-06-22T17:48:26;6.30;;;5.53;;
39102;SDS011;24847;48.218;16.414;2023-06-22T17:53:32;9.00;;;6.35;;
39102;SDS011;24847;48.218;16.414;2023-06-22T17:58:36;7.30;;;6.32;;
39102;SDS011;24847;48.218;16.414;2023-06-22T18:03:38;7.63;;;5.97;;
39102;SDS011;24847;48.218;16.414;2023-06-22T18:08:40;9.20;;;5.68;;
39102;SDS011;24847;48.218;16.414;2023-06-22T18:13:44;7.57;;;6.22;;
39102;SDS011;24847;48.218;16.414;2023-06-22T18:18:46;9.45;;;6.70;;
39102;SDS011;24847;48.218;16.414;2023-06-22T18:23:49;6.65;;;5.45;;
39102;SDS011;24847;48.218;16.414;2023-06-22T18:28:54;11.75;;;5.20;;
39102;SDS011;24847;48.218;16.414;2023-06-22T18:33:57;7.75;;;4.88;;
39102;SDS011;24847;48.218;16.414;2023-06-22T18:39:00;7.90;;;4.78;;
39102;SDS011;24847;48.218;16.414;2023-06-22T18:44:11;6.97;;;6.28;;
39102;SDS011;24847;48.218;16.414;2023-06-22T18:49:21;6.15;;;4.55;;
39102;SDS011;24847;48.218;16.414;2023-06-22T18:54:29;6.93;;;5.50;;
39102;SDS011;24847;48.218;16.414;2023-06-22T18:59:46;6.95;;;5.40;;
39102;SDS011;24847;48.218;16.414;2023-06-22T19:04:51;7.90;;;4.75;;
39102;SDS011;24847;48.218;16.414;2023-06-22T19:10:21;6.47;;;4.88;;
39102;SDS011;24847;48.218;16.414;2023-06-22T19:15:30;11.35;;;7.60;;
39102;SDS011;24847;48.218;16.414;2023-06-22T19:20:34;8.90;;;6.13;;
39102;SDS011;24847;48.218;16.414;2023-06-22T19:25:38;6.68;;;5.28;;
39102;SDS011;24847;48.218;16.414;2023-06-22T19:30:49;7.97;;;6.75;;
39102;SDS011;24847;48.218;16.414;2023-06-22T19:35:54;9.55;;;6.20;;
39102;SDS011;24847;48.218;16.414;2023-06-22T19:40:58;6.95;;;5.57;;
39102;SDS011;24847;48.218;16.414;2023-06-22T19:46:02;7.22;;;6.28;;
39102;SDS011;24847;48.218;16.414;2023-06-22T19:51:05;8.13;;;5.85;;
39102;SDS011;24847;48.218;16.414;2023-06-22T19:56:08;9.13;;;6.32;;
39102;SDS011;24847;48.218;16.414;2023-06-22T20:01:13;7.63;;;5.78;;
39102;SDS011;24847;48.218;16.414;2023-06-22T20:06:16;10.80;;;6.43;;
39102;SDS011;24847;48.218;16.414;2023-06-22T20:11:22;8.57;;;5.57;;
39102;SDS011;24847;48.218;16.414;2023-06-22T20:16:28;9.38;;;6.22;;
39102;SDS011;24847;48.218;16.414;2023-06-22T20:21:31;8.02;;;6.65;;
39102;SDS011;24847;48.218;16.414;2023-06-22T20:26:37;9.90;;;5.65;;
39102;SDS011;24847;48.218;16.414;2023-06-22T20:31:42;7.93;;;5.55;;
39102;SDS011;24847;48.218;16.414;2023-06-22T20:36:44;9.80;;;7.40;;
39102;SDS011;24847;48.218;16.414;2023-06-22T20:41:47;7.97;;;5.70;;
39102;SDS011;24847;48.218;16.414;2023-06-22T20:46:50;6.00;;;5.05;;
39102;SDS011;24847;48.218;16.414;2023-06-22T20:51:55;6.38;;;5.38;;
39102;SDS011;24847;48.218;16.414;2023-06-22T20:56:57;7.18;;;5.07;;
39102;SDS011;24847;48.218;16.414;2023-06-22T21:02:01;7.78;;;5.78;;
39102;SDS011;24847;48.218;16.414;2023-06-22T21:07:04;8.98;;;6.97;;
39102;SDS011;24847;48.218;16.414;2023-06-22T21:12:07;6.93;;;6.22;;
39102;SDS011;24847;48.218;16.414;2023-06-22T21:17:11;7.05;;;6.38;;
39102;SDS011;24847;48.218;16.414;2023-06-22T21:22:13;6.07;;;5.38;;
39102;SDS011;24847;48.218;16.414;2023-06-22T21:27:16;7.68;;;6.03;;
39102;SDS011;24847;48.218;16.414;2023-06-22T21:32:19;8.65;;;6.38;;
39102;SDS011;24847;48.218;16.414;2023-06-22T21:37:22;8.50;;;6.30;;
39102;SDS011;24847;48.218;16.414;2023-06-22T21:42:24;8.30;;;6.10;;
39102;SDS011;24847;48.218;16.414;2023-06-22T21:47:28;7.50;;;6.25;;
39102;SDS011;24847;48.218;16.414;2023-06-22T21:52:31;7.75;;;6.95;;
39102;SDS011;24847;48.218;16.414;2023-06-22T21:57:33;10.13;;;6.95;;
39102;SDS011;24847;48.218;16.414;2023-06-22T22:02:37;7.43;;;6.72;;
39102;SDS011;24847;48.218;16.414;2023-06-22T22:07:39;8.52;;;7.72;;
39102;SDS011;24847;48.218;16.414;2023-06-22T22:12:41;10.35;;;9.10;;
39102;SDS011;24847;48.218;16.414;2023-06-22T22:17:45;11.70;;;8.40;;
39102;SDS011;24847;48.218;16.414;2023-06-22T22:22:47;8.77;;;7.85;;
39102;SDS011;24847;48.218;16.414;2023-06-22T22:27:49;8.18;;;7.38;;
39102;SDS011;24847;48.218;16.414;2023-06-22T22:32:53;8.57;;;7.53;;
39102;SDS011;24847;48.218;16.414;2023-06-22T22:37:55;9.43;;;8.02;;
39102;SDS011;24847;48.218;16.414;2023-06-22T22:42:58;9.77;;;8.77;;
39102;SDS011;24847;48.218;16.414;2023-06-22T22:48:01;9.32;;;8.32;;
39102;SDS011;24847;48.218;16.414;2023-06-22T22:53:04;9.65;;;8.73;;
39102;SDS011;24847;48.218;16.414;2023-06-22T22:58:08;12.23;;;9.57;;
39102;SDS011;24847;48.218;16.414;2023-06-22T23:03:12;10.88;;;9.30;;
39102;SDS011;24847;48.218;16.414;2023-06-22T23:08:14;11.13;;;8.60;;
39102;SDS011;24847;48.218;16.414;2023-06-22T23:13:16;10.52;;;8.82;;
39102;SDS011;24847;48.218;16.414;2023-06-22T23:18:20;9.18;;;7.25;;
39102;SDS011;24847;48.218;16.414;2023-06-22T23:23:22;8.45;;;7.72;;
39102;SDS011;24847;48.218;16.414;2023-06-22T23:28:24;8.52;;;6.88;;
39102;SDS011;24847;48.218;16.414;2023-06-22T23:33:28;10.70;;;7.25;;
39102;SDS011;24847;48.218;16.414;2023-06-22T23:38:31;18.23;;;7.80;;
39102;SDS011;24847;48.218;16.414;2023-06-22T23:43:33;6.50;;;5.75;;
39102;SDS011;24847;48.218;16.414;2023-06-22T23:48:37;10.50;;;7.30;;
39102;SDS011;24847;48.218;16.414;2023-06-22T23:53:39;10.73;;;7.25;;
39102;SDS011;24847;48.218;16.414;2023-06-22T23:58:42;8.45;;;7.55;;
